Carnival Splendor — 3EUS — position and weather

sailwx.info

Track history (hours):
 
Tides and Currents Weather Stations Pressure Air Temp Water Temp Dewpoint Dewpoint Depression Visibility Wind Speed Wind Dir Waves Ship Positions

Carnival Splendor

Last reported at 2015-Mar-29 01:00 UTC. Time now 2015-Apr-02 03:09 UTC.
Position N 23°42' W 081°30'.

Length 289 m; draft 8.3 m.

Type: Ship. MMSI: 372808000.

Wind from 010 at 28 knots

Barometer 1020.0 mb
Air temperature 21.0 ° C
Visibility: greater than 27.0 NM
Dewpoint 13.0 ° C

Date/timePositionNaut miles runAvg speedWind from/ knotsBaromVisibWave heightAir tempDewpointWater temp
2015-Mar-29 01:00N 23°42' W 081°30'23710.3 010 / 281020.027.0 21.013.0
2015-Mar-28 02:00N 19°48' W 082°12'240 9.2 200 / 91014.027.0 27.020.028.0
2015-Mar-27 00:00N 17°00' W 085°12'155 7.4 120 / 321010.027.0 2.027.021.028.0
2015-Mar-26 03:00N 17°06' W 087°54'205 7.1 070 / 281014.027.0 1.027.023.027.0
2015-Mar-24 22:10N 20°25' W 087°03'5 8.9
2015-Mar-24 21:33N 20°29' W 086°59'0 0.3
2015-Mar-24 20:33N 20°29' W 086°59'0 0.0
2015-Mar-24 19:33N 20°29' W 086°59'0 0.0
2015-Mar-24 18:32N 20°29' W 086°59'0 0.0
2015-Mar-24 17:29N 20°29' W 086°59'0 0.0
2015-Mar-24 16:28N 20°29' W 086°59'0 0.0
2015-Mar-24 15:28N 20°29' W 086°59'0 0.0
2015-Mar-24 14:33N 20°29' W 086°59'0 0.0
2015-Mar-24 13:33N 20°29' W 086°59'0 0.0
2015-Mar-24 12:33N 20°29' W 086°59'1 0.9
2015-Mar-24 11:33N 20°29' W 086°59'29212.9
2015-Mar-23 13:00N 23°18' W 082°42'20313.9 330 / 161015.027.0 25.019.027.0
2015-Mar-22 22:20N 25°35' W 079°57'1114.2
2015-Mar-22 21:33N 25°45' W 080°01'8 8.4
2015-Mar-22 20:32N 25°47' W 080°10'0 0.0
2015-Mar-22 19:26N 25°47' W 080°10'0 0.0
2015-Mar-22 18:31N 25°47' W 080°10'0 0.0
2015-Mar-22 17:28N 25°47' W 080°10'0 0.0
2015-Mar-22 16:33N 25°47' W 080°10'0 0.0
2015-Mar-22 15:30N 25°47' W 080°10'0 0.0
2015-Mar-22 14:32N 25°47' W 080°10'0 0.0
2015-Mar-22 13:32N 25°47' W 080°10'0 0.0
2015-Mar-22 12:26N 25°47' W 080°10'0 0.0
2015-Mar-22 11:31N 25°47' W 080°10'1 0.7
2015-Mar-22 10:33N 25°47' W 080°11'7 7.3
2015-Mar-22 09:34N 25°47' W 080°03'1110.7
2015-Mar-22 08:33N 25°52' W 079°53'1716.6
2015-Mar-22 07:33N 26°01' W 079°37'1717.3
2015-Mar-22 06:34N 26°10' W 079°20'1715.9
2015-Mar-22 05:30N 26°16' W 079°03'1616.6
2015-Mar-22 04:31N 26°12' W 078°46'1716.9
2015-Mar-22 03:32N 26°07' W 078°28'  
Track history (hours):
 
Tides and Currents Weather Stations Pressure Air Temp Water Temp Dewpoint Dewpoint Depression Visibility Wind Speed Wind Dir Waves Ship Positions

Carnival Splendor

Last reported at 2015-Mar-29 01:00 UTC. Time now 2015-Apr-02 03:09 UTC.
Position N 23°42' W 081°30'.

Length 289 m; draft 8.3 m.

Type: Ship. MMSI: 372808000.

Wind from 010 at 28 knots

Barometer 1020.0 mb
Air temperature 21.0 ° C
Visibility: greater than 27.0 NM
Dewpoint 13.0 ° C

Date/timePositionNaut miles runAvg speedWind from/ knotsBaromVisibWave heightAir tempDewpointWater temp
2015-Mar-29 01:00N 23°42' W 081°30'23710.3 010 / 281020.027.0 21.013.0
2015-Mar-28 02:00N 19°48' W 082°12'240 9.2 200 / 91014.027.0 27.020.028.0
2015-Mar-27 00:00N 17°00' W 085°12'155 7.4 120 / 321010.027.0 2.027.021.028.0
2015-Mar-26 03:00N 17°06' W 087°54'205 7.1 070 / 281014.027.0 1.027.023.027.0
2015-Mar-24 22:10N 20°25' W 087°03'5 8.9
2015-Mar-24 21:33N 20°29' W 086°59'0 0.3
2015-Mar-24 20:33N 20°29' W 086°59'0 0.0
2015-Mar-24 19:33N 20°29' W 086°59'0 0.0
2015-Mar-24 18:32N 20°29' W 086°59'0 0.0
2015-Mar-24 17:29N 20°29' W 086°59'0 0.0
2015-Mar-24 16:28N 20°29' W 086°59'0 0.0
2015-Mar-24 15:28N 20°29' W 086°59'0 0.0
2015-Mar-24 14:33N 20°29' W 086°59'0 0.0
2015-Mar-24 13:33N 20°29' W 086°59'0 0.0
2015-Mar-24 12:33N 20°29' W 086°59'1 0.9
2015-Mar-24 11:33N 20°29' W 086°59'29212.9
2015-Mar-23 13:00N 23°18' W 082°42'20313.9 330 / 161015.027.0 25.019.027.0
2015-Mar-22 22:20N 25°35' W 079°57'1114.2
2015-Mar-22 21:33N 25°45' W 080°01'8 8.4
2015-Mar-22 20:32N 25°47' W 080°10'0 0.0
2015-Mar-22 19:26N 25°47' W 080°10'0 0.0
2015-Mar-22 18:31N 25°47' W 080°10'0 0.0
2015-Mar-22 17:28N 25°47' W 080°10'0 0.0
2015-Mar-22 16:33N 25°47' W 080°10'0 0.0
2015-Mar-22 15:30N 25°47' W 080°10'0 0.0
2015-Mar-22 14:32N 25°47' W 080°10'0 0.0
2015-Mar-22 13:32N 25°47' W 080°10'0 0.0
2015-Mar-22 12:26N 25°47' W 080°10'0 0.0
2015-Mar-22 11:31N 25°47' W 080°10'1 0.7
2015-Mar-22 10:33N 25°47' W 080°11'7 7.3
2015-Mar-22 09:34N 25°47' W 080°03'1110.7
2015-Mar-22 08:33N 25°52' W 079°53'1716.6
2015-Mar-22 07:33N 26°01' W 079°37'1717.3
2015-Mar-22 06:34N 26°10' W 079°20'1715.9
2015-Mar-22 05:30N 26°16' W 079°03'1616.6
2015-Mar-22 04:31N 26°12' W 078°46'1716.9
2015-Mar-22 03:32N 26°07' W 078°28'  

Dump ship's entire track history